Kermit, Texas
Current Conditions -  °F | °C
As of 1:53 PM on Monday 22 Dec 2014 (Local Time) from KINK Reporting Station
Clear Clear  
Wind Chill: 72°   Ceiling: Unl
Heat Index: 72°   Visibility: 10mi
Dew Point: 28°   Wind: 15mph
Humidity: 20%   Direction: 280°W
Pressure: 29.69"   Gusts: 21mph
Location:  31.85°N, 103.08°W
Report Text: KINK 221953Z AUTO 28013G18KT 10SM CLR 22/M02 A2969 RMK AO2 SLP021 T02221022
Loading
Personal Weather Stations






























Interactive Weather Map New forecast layout! Learn more

10-Day Weather Forecast

Advertisements
Track Severe Weather on mobile